Time;durP1;ratioP1;P1;durP2;ratioP2;P2;SDS_P1;SDS_P2;PMS_P1;PMS_P2;Temp;Humidity;BMP_temperature;BMP_pressure;BME280_temperature;BME280_humidity;BME280_pressure;Samples;Min_cycle;Max_cycle;Signal;HPM_P1;HPM_P2
2022/12/14 00:01:54;;;;;;;1.23;1.23;;;;;;;-2.33;75.24;98953.06;4456863;32;33120;-75
2022/12/14 00:04:23;;;;;;;7.18;6.57;;;;;;;-1.82;74.44;98948.75;4470824;32;34736;-75
2022/12/14 00:06:51;;;;;;;2.55;2.35;;;;;;;-2.50;77.61;98942.28;4456801;32;34964;-76
2022/12/14 00:09:19;;;;;;;1.00;1.00;;;;;;;-2.06;75.27;98938.66;4470815;32;34915;-75
2022/12/14 00:11:48;;;;;;;6.90;4.72;;;;;;;-2.08;75.99;98935.16;4470775;32;34307;-76
2022/12/14 00:14:16;;;;;;;1.25;1.23;;;;;;;-2.03;75.99;98931.06;4470774;32;34852;-76
2022/12/14 00:16:44;;;;;;;0.80;0.80;;;;;;;-2.26;76.39;98932.84;4456756;32;34984;-75
2022/12/14 00:19:13;;;;;;;2.08;1.98;;;;;;;-2.38;77.53;98933.31;4470831;32;34610;-75
2022/12/14 00:21:40;;;;;;;1.20;1.20;;;;;;;-2.09;76.29;98931.75;4470567;32;34180;-76
2022/12/14 00:24:09;;;;;;;1.20;1.20;;;;;;;-1.86;75.22;98929.06;4470760;32;33449;-75
2022/12/14 00:26:37;;;;;;;0.90;0.90;;;;;;;-1.87;74.92;98934.97;4470728;32;35153;-75
2022/12/14 00:29:05;;;;;;;0.80;0.80;;;;;;;-1.80;75.04;98947.13;4456913;32;35268;-75
2022/12/14 00:31:35;;;;;;;2.42;2.33;;;;;;;-2.33;76.63;98936.88;4456786;32;33614;-76
2022/12/14 00:34:03;;;;;;;9.93;7.22;;;;;;;-1.59;74.18;98936.72;4444220;32;34017;-75
2022/12/14 00:36:31;;;;;;;0.80;0.80;;;;;;;-1.57;74.07;98932.53;4470529;32;35152;-75
2022/12/14 00:38:59;;;;;;;4.05;3.85;;;;;;;-1.55;74.00;98936.03;4470742;32;34466;-76
2022/12/14 00:41:27;;;;;;;0.90;0.90;;;;;;;-1.89;75.08;98940.03;4470796;32;33454;-75
2022/12/14 00:43:55;;;;;;;2.75;2.60;;;;;;;-2.02;75.24;98937.91;4470717;32;33964;-75
2022/12/14 00:46:23;;;;;;;1.55;1.45;;;;;;;-1.95;75.25;98934.75;4470553;32;35880;-75
2022/12/14 00:48:52;;;;;;;1.50;1.48;;;;;;;-1.98;75.57;98943.16;4470701;32;35277;-75
2022/12/14 00:51:21;;;;;;;1.00;1.00;;;;;;;-1.98;75.17;98958.47;4470482;32;33418;-75
2022/12/14 00:53:49;;;;;;;1.00;1.00;;;;;;;-2.23;76.54;98953.38;4470430;32;34835;-76
2022/12/14 00:56:17;;;;;;;1.45;1.42;;;;;;;-2.07;77.18;98952.19;4470551;32;35138;-75
2022/12/14 00:58:52;;;;;;;1.02;1.02;;;;;;;-1.91;75.88;98951.88;4470712;32;34517;-75
2022/12/14 01:01:21;;;;;;;1.10;1.10;;;;;;;-1.74;74.54;98955.84;4455844;32;33425;-75
2022/12/14 01:03:49;;;;;;;2.83;2.62;;;;;;;-2.08;76.47;98948.78;4456584;32;34733;-76
2022/12/14 01:06:19;;;;;;;3.42;3.10;;;;;;;-2.00;76.32;98962.66;4470389;32;35809;-75
2022/12/14 01:08:48;;;;;;;0.90;0.90;;;;;;;-2.03;75.60;98952.38;4470392;32;35327;-75
2022/12/14 01:11:16;;;;;;;2.35;2.25;;;;;;;-1.83;75.66;98955.56;4456432;32;33533;-75
2022/12/14 01:13:44;;;;;;;0.90;0.90;;;;;;;-1.72;75.52;98950.78;4456501;32;33756;-82
2022/12/14 01:16:17;;;;;;;1.12;1.12;;;;;;;-2.14;76.82;98957.09;4470406;32;35064;-75
2022/12/14 01:18:45;;;;;;;5.25;4.87;;;;;;;-2.04;76.73;98959.97;4470229;32;34543;-75
2022/12/14 01:21:22;;;;;;;1.00;1.00;;;;;;;-1.99;76.05;98958.44;4456174;32;32871;-75
2022/12/14 01:23:55;;;;;;;5.62;5.22;;;;;;;-1.72;75.06;98956.75;4456497;32;34645;-75
2022/12/14 01:26:24;;;;;;;1.25;1.25;;;;;;;-1.72;74.94;98951.66;4456417;32;35774;-75
2022/12/14 01:28:56;;;;;;;1.20;1.20;;;;;;;-2.28;77.51;98953.22;4470281;32;34490;-75
2022/12/14 01:31:26;;;;;;;2.03;1.98;;;;;;;-2.12;77.27;98958.03;4456450;32;33442;-75
2022/12/14 01:33:54;;;;;;;0.80;0.80;;;;;;;-2.05;75.83;98958.22;4456303;32;33211;-75
2022/12/14 01:36:25;;;;;;;2.95;2.22;;;;;;;-2.14;75.84;98954.53;4470280;32;35013;-75
2022/12/14 01:38:55;;;;;;;5.60;5.20;;;;;;;-2.06;76.31;98956.50;4470193;32;34196;-75
2022/12/14 01:41:27;;;;;;;2.47;2.33;;;;;;;-2.18;76.23;98946.75;4456198;32;34363;-75
2022/12/14 01:44:00;;;;;;;2.42;2.33;;;;;;;-2.01;76.23;98942.19;4456289;32;34040;-75
2022/12/14 01:46:39;;;;;;;1.10;1.10;;;;;;;-1.65;75.06;98934.00;4470180;32;35131;-75
2022/12/14 01:49:22;;;;;;;1.02;1.02;;;;;;;-2.21;76.59;98934.75;4456537;32;34542;-75
2022/12/14 01:51:56;;;;;;;3.20;3.03;;;;;;;-2.08;76.51;98937.69;4470062;32;33116;-75
2022/12/14 01:54:27;;;;;;;1.05;1.05;;;;;;;-2.12;76.35;98937.62;4470104;32;34594;-75
2022/12/14 01:56:55;;;;;;;4.00;3.78;;;;;;;-1.92;76.23;98932.31;4469876;32;35822;-75
2022/12/14 01:59:30;;;;;;;1.67;1.58;;;;;;;-1.90;75.52;98930.66;4455961;32;35133;-75
2022/12/14 02:02:00;;;;;;;12.37;4.10;;;;;;;-2.02;75.49;98922.62;4456190;32;33566;-75
2022/12/14 02:04:29;;;;;;;2.37;2.28;;;;;;;-2.07;75.38;98917.34;4469924;32;34650;-75
2022/12/14 02:06:57;;;;;;;2.12;2.05;;;;;;;-2.53;77.02;98919.22;4455939;32;34859;-75
2022/12/14 02:09:37;;;;;;;3.62;3.40;;;;;;;-2.55;78.04;98925.94;4469926;32;33577;-75
2022/12/14 02:12:24;;;;;;;3.33;2.67;;;;;;;-2.27;77.37;98926.03;4469777;32;34605;-75
2022/12/14 02:14:54;;;;;;;6.80;2.50;;;;;;;-2.16;76.71;98909.41;4455786;32;33956;-75
2022/12/14 02:17:22;;;;;;;1.35;1.35;;;;;;;-2.33;76.91;98912.28;4455909;32;36048;-75
2022/12/14 02:19:51;;;;;;;1.55;1.48;;;;;;;-1.94;76.13;98921.16;4455747;32;35376;-75
2022/12/14 02:22:21;;;;;;;0.90;0.90;;;;;;;-2.18;76.61;98914.44;4469597;32;33930;-75
2022/12/14 02:25:32;;;;;;;2.10;2.00;;;;;;;-2.21;76.21;98916.88;4469743;32;33889;-76
2022/12/14 02:28:09;;;;;;;5.90;5.37;;;;;;;-2.18;75.55;98921.25;4461771;32;34937;-75
2022/12/14 02:30:38;;;;;;;3.30;3.15;;;;;;;-2.16;75.98;98912.81;4469635;32;35145;-75
2022/12/14 02:33:40;;;;;;;0.90;0.90;;;;;;;-2.41;77.17;98923.03;4455527;32;33535;-75
2022/12/14 02:36:51;;;;;;;1.20;1.20;;;;;;;-2.39;77.32;98921.38;4455725;32;33900;-75
2022/12/14 02:39:37;;;;;;;1.42;1.42;;;;;;;-2.42;77.48;98921.28;4405415;32;35936;-75
2022/12/14 02:42:09;;;;;;;3.40;3.15;;;;;;;-2.68;78.98;98905.97;4452150;32;32924;-75
2022/12/14 02:45:05;;;;;;;3.00;2.80;;;;;;;-2.56;78.19;98906.41;4469470;32;33550;-75
2022/12/14 02:47:49;;;;;;;4.00;3.67;;;;;;;-2.50;77.87;98892.97;4469366;32;34774;-75
2022/12/14 02:50:50;;;;;;;6.78;6.25;;;;;;;-2.31;77.70;98899.56;4469356;32;35864;-75
2022/12/14 02:53:22;;;;;;;4.65;4.22;;;;;;;-2.53;78.23;98892.88;4455268;32;35276;-75
2022/12/14 02:55:52;;;;;;;2.20;2.05;;;;;;;-2.23;77.63;98887.06;4469454;32;33612;-75
2022/12/14 02:58:20;;;;;;;1.95;1.85;;;;;;;-2.31;77.23;98886.81;4455195;32;33764;-75
2022/12/14 03:00:48;;;;;;;1.42;1.40;;;;;;;-2.59;79.45;98878.25;4469125;32;35178;-75
2022/12/14 03:03:16;;;;;;;1.67;1.60;;;;;;;-2.44;77.84;98877.88;4468971;32;35198;-75
2022/12/14 03:05:59;;;;;;;6.68;6.15;;;;;;;-2.45;78.95;98888.03;4468975;32;33717;-75
2022/12/14 03:08:29;;;;;;;2.25;2.15;;;;;;;-2.20;77.34;98877.84;4469067;32;33858;-75
2022/12/14 03:11:01;;;;;;;1.27;1.27;;;;;;;-2.20;77.34;98882.94;4455121;32;34874;-75
2022/12/14 03:13:32;;;;;;;5.30;4.90;;;;;;;-2.62;78.89;98873.03;4442080;32;34651;-75
2022/12/14 03:16:24;;;;;;;5.05;4.68;;;;;;;-2.28;78.21;98869.06;4469169;32;34263;-75
2022/12/14 03:19:02;;;;;;;0.88;0.88;;;;;;;-2.53;78.64;98873.34;4468168;32;33862;-75
2022/12/14 03:21:34;;;;;;;0.80;0.80;;;;;;;-2.29;78.09;98875.84;4454779;32;35019;-75
2022/12/14 03:24:08;;;;;;;1.15;1.15;;;;;;;-2.32;78.81;98882.53;4456350;32;34301;-75
2022/12/14 03:27:04;;;;;;;2.87;2.67;;;;;;;-2.45;79.64;98880.37;4471289;32;33337;-75
2022/12/14 03:29:38;;;;;;;4.00;2.90;;;;;;;-2.20;78.29;98875.28;4457183;32;33774;-75
2022/12/14 03:32:10;;;;;;;0.90;0.90;;;;;;;-2.22;79.49;98874.38;4457170;32;35987;-75
2022/12/14 03:35:12;;;;;;;1.87;1.77;;;;;;;-2.78;81.73;98873.34;4457131;32;34531;-75
2022/12/14 03:37:56;;;;;;;3.20;3.00;;;;;;;-2.66;81.44;98868.66;4445895;32;33255;-75
2022/12/14 03:40:41;;;;;;;1.70;1.70;;;;;;;-2.13;79.48;98863.59;4457111;32;33973;-75
2022/12/14 03:43:23;;;;;;;0.80;0.80;;;;;;;-2.34;79.89;98866.31;4457126;32;35128;-75
2022/12/14 03:46:03;;;;;;;1.42;1.42;;;;;;;-2.31;80.82;98858.78;4457219;32;34424;-75
2022/12/14 03:48:39;;;;;;;3.80;3.50;;;;;;;-2.54;82.16;98853.78;4457114;32;33383;-75
2022/12/14 03:51:18;;;;;;;1.70;1.60;;;;;;;-2.78;83.26;98864.00;4471079;32;34017;-75
2022/12/14 03:54:04;;;;;;;2.37;2.28;;;;;;;-2.59;82.34;98857.00;4457069;32;35389;-75
2022/12/14 03:56:48;;;;;;;0.90;0.90;;;;;;;-2.44;82.33;98856.63;4456754;32;34451;-75
2022/12/14 03:59:43;;;;;;;4.30;4.05;;;;;;;-2.35;82.26;98847.59;4457406;32;33759;-75
2022/12/14 04:02:23;;;;;;;0.90;0.90;;;;;;;-2.66;82.38;98840.63;4457012;32;34815;-75
2022/12/14 04:04:56;;;;;;;0.90;0.90;;;;;;;-2.26;83.09;98830.84;4470900;32;35034;-75
2022/12/14 04:07:49;;;;;;;1.48;1.48;;;;;;;-2.20;81.56;98837.03;4470817;32;35270;-75
2022/12/14 04:19:01;;;;;;;2.95;2.75;;;;;;;-1.87;80.72;98835.47;4459003;32;34539;-75
2022/12/14 04:21:40;;;;;;;2.75;2.55;;;;;;;-2.18;81.93;98830.28;4457669;32;34383;-75
2022/12/14 04:27:43;;;;;;;1.37;1.37;;;;;;;-1.96;82.25;98818.19;4470753;32;35081;-75
2022/12/14 04:30:12;;;;;;;0.90;0.90;;;;;;;-2.04;82.42;98799.25;4456768;32;34879;-75
2022/12/14 04:32:52;;;;;;;3.53;3.33;;;;;;;-1.46;80.22;98806.06;4456783;32;34260;-75
2022/12/14 04:35:28;;;;;;;1.10;1.10;;;;;;;-1.76;80.33;98799.25;4469517;32;34724;-75
2022/12/14 04:38:07;;;;;;;1.17;1.17;;;;;;;-1.82;81.18;98799.06;4456783;32;34921;-75
2022/12/14 04:40:42;;;;;;;0.80;0.80;;;;;;;-1.57;80.38;98794.66;4443863;32;33602;-75
2022/12/14 04:43:15;;;;;;;0.98;0.98;;;;;;;-1.67;80.78;98788.44;4456731;32;33458;-75
2022/12/14 04:45:53;;;;;;;0.90;0.90;;;;;;;-1.96;81.54;98778.25;4457041;32;33886;-75
2022/12/14 04:48:35;;;;;;;0.77;0.77;;;;;;;-2.25;83.30;98792.66;4443927;32;35936;-75
2022/12/14 04:51:19;;;;;;;0.80;0.80;;;;;;;-2.31;83.45;98789.94;4470612;32;35200;-75
2022/12/14 04:53:52;;;;;;;1.98;1.87;;;;;;;-1.77;81.86;98787.28;4456782;32;34536;-75
2022/12/14 04:56:28;;;;;;;3.37;3.17;;;;;;;-2.04;82.46;98781.41;4456598;32;33898;-75
2022/12/14 04:58:56;;;;;;;9.20;8.40;;;;;;;-1.88;81.87;98783.56;4470539;32;36038;-75
2022/12/14 05:01:55;;;;;;;0.82;0.82;;;;;;;-2.00;82.82;98778.97;4470410;32;34388;-87
2022/12/14 05:04:26;;;;;;;0.80;0.80;;;;;;;-1.89;82.15;98781.84;4425834;32;33320;-76
2022/12/14 05:07:26;;;;;;;2.37;2.17;;;;;;;-1.99;82.49;98785.81;4470442;32;33907;-75
2022/12/14 05:10:17;;;;;;;2.30;1.83;;;;;;;-2.01;82.55;98787.47;4441436;32;35043;-75
2022/12/14 05:13:09;;;;;;;0.82;0.82;;;;;;;-1.57;81.00;98794.66;4470446;32;34491;-75
2022/12/14 05:15:46;;;;;;;0.80;0.80;;;;;;;-1.83;81.11;98792.25;4470460;32;33083;-76
2022/12/14 05:18:14;;;;;;;;;;;;;;;-1.53;80.81;98793.94;4456818;32;34685;-75
2022/12/14 05:20:44;;;;;;;0.80;0.80;;;;;;;-2.12;82.42;98799.88;4456333;32;35280;-75
2022/12/14 05:23:12;;;;;;;4.87;3.15;;;;;;;-1.98;82.07;98801.97;4470110;32;34662;-75
2022/12/14 05:25:40;;;;;;;4.00;2.65;;;;;;;-1.72;81.20;98790.84;4456351;32;33465;-74
2022/12/14 05:28:10;;;;;;;1.35;1.35;;;;;;;-1.97;82.06;98796.06;4470247;32;34581;-75
2022/12/14 05:30:38;;;;;;;0.80;0.80;;;;;;;-1.84;82.21;98790.50;4456304;32;34932;-75
2022/12/14 05:33:07;;;;;;;1.45;1.45;;;;;;;-1.92;82.59;98792.81;4470263;32;34446;-74
2022/12/14 05:35:36;;;;;;;1.15;1.15;;;;;;;-1.95;82.15;98774.00;4456404;32;33295;-74
2022/12/14 05:38:04;;;;;;;9.45;7.35;;;;;;;-1.66;80.36;98776.53;4470084;32;34716;-74
2022/12/14 05:40:32;;;;;;;3.62;3.40;;;;;;;-1.47;79.97;98775.38;4470133;32;34504;-75
2022/12/14 05:43:07;;;;;;;1.80;1.70;;;;;;;-1.77;80.18;98766.87;4469962;32;34654;-75
2022/12/14 05:45:35;;;;;;;2.97;2.80;;;;;;;-2.13;81.71;98767.53;4455821;32;33593;-74
2022/12/14 05:48:04;;;;;;;1.20;1.20;;;;;;;-1.64;80.20;98777.44;4470168;32;33733;-74
2022/12/14 05:50:32;;;;;;;5.10;4.75;;;;;;;-1.80;80.18;98769.38;4456038;32;35087;-75
2022/12/14 05:53:00;;;;;;;0.80;0.80;;;;;;;-1.84;80.20;98770.06;4469992;32;35347;-75
2022/12/14 05:55:28;;;;;;;3.67;3.40;;;;;;;-1.73;78.97;98773.81;4456194;32;33599;-76
2022/12/14 05:57:56;;;;;;;2.25;2.15;;;;;;;-2.00;80.74;98788.31;4469960;32;34677;-75
2022/12/14 06:00:24;;;;;;;1.00;1.00;;;;;;;-1.96;80.97;98755.28;4470014;32;35104;-75
2022/12/14 06:02:54;;;;;;;0.85;0.85;;;;;;;-2.05;81.24;98749.91;4469974;32;34417;-75
2022/12/14 06:05:22;;;;;;;3.75;3.45;;;;;;;-1.96;80.79;98734.88;4455921;32;33354;-75
2022/12/14 06:07:50;;;;;;;0.90;0.90;;;;;;;-1.90;80.42;98739.28;4469881;32;34691;-75
2022/12/14 06:10:18;;;;;;;2.03;1.92;;;;;;;-1.50;79.11;98735.31;4470103;32;36048;-75
2022/12/14 06:12:46;;;;;;;2.30;2.20;;;;;;;-1.45;78.21;98726.06;4455846;32;34465;-75
2022/12/14 06:15:14;;;;;;;3.85;3.62;;;;;;;-1.56;78.35;98714.72;4469900;32;33370;-75
2022/12/14 06:17:43;;;;;;;0.98;0.98;;;;;;;-1.68;77.90;98724.59;4469650;32;34008;-75
2022/12/14 06:20:12;;;;;;;2.15;2.05;;;;;;;-1.45;78.06;98733.72;4455604;32;35224;-75
2022/12/14 06:22:40;;;;;;;1.33;1.33;;;;;;;-1.96;80.20;98736.53;4452708;32;34405;-75
2022/12/14 06:25:14;;;;;;;0.80;0.80;;;;;;;-1.57;78.75;98741.94;4454081;32;33430;-75
2022/12/14 06:27:42;;;;;;;0.90;0.90;;;;;;;-1.27;77.45;98747.81;4452971;32;34491;-75
2022/12/14 06:30:11;;;;;;;1.52;1.45;;;;;;;-1.37;77.08;98752.69;4453935;32;35960;-75
2022/12/14 06:32:39;;;;;;;1.80;1.70;;;;;;;-1.46;77.76;98752.44;4440080;32;35309;-75
2022/12/14 06:35:07;;;;;;;1.33;1.33;;;;;;;-0.98;76.00;98736.69;4454020;32;33725;-76
2022/12/14 06:37:35;;;;;;;1.45;1.45;;;;;;;-1.00;75.93;98733.22;4453956;32;33450;-74
2022/12/14 06:40:04;;;;;;;2.40;2.20;;;;;;;-1.77;78.42;98741.34;4454119;32;35957;-75
2022/12/14 06:42:32;;;;;;;0.90;0.90;;;;;;;-1.48;78.06;98733.69;4453883;32;34403;-74
2022/12/14 06:45:00;;;;;;;0.90;0.90;;;;;;;-1.42;77.36;98750.84;4453788;32;34259;-74
2022/12/14 06:47:28;;;;;;;0.93;0.93;;;;;;;-1.34;77.29;98742.56;4452647;32;34026;-76
2022/12/14 06:49:56;;;;;;;3.10;3.00;;;;;;;-1.22;76.65;98743.72;4453594;32;35148;-75
2022/12/14 06:52:24;;;;;;;1.00;1.00;;;;;;;-1.35;76.93;98745.06;4453765;32;35341;-75
2022/12/14 06:54:54;;;;;;;5.87;3.00;;;;;;;-2.04;78.82;98735.47;4453700;32;33339;-74
2022/12/14 06:57:22;;;;;;;2.35;2.25;;;;;;;-1.87;78.32;98741.94;4453473;32;33953;-75
2022/12/14 06:59:50;;;;;;;1.70;1.60;;;;;;;-1.93;78.96;98746.84;4455610;32;34594;-75
2022/12/14 07:02:18;;;;;;;0.80;0.80;;;;;;;-1.99;78.04;98739.88;4455739;32;34489;-75
2022/12/14 07:04:46;;;;;;;0.80;0.80;;;;;;;-1.54;77.59;98728.37;4455750;32;33524;-75
2022/12/14 07:07:14;;;;;;;0.90;0.90;;;;;;;-1.60;78.03;98713.75;4455758;32;33863;-74
2022/12/14 07:09:43;;;;;;;1.00;1.00;;;;;;;-1.52;77.34;98716.53;4455540;32;35016;-74
2022/12/14 07:12:11;;;;;;;1.05;1.05;;;;;;;-1.28;76.23;98715.47;4454427;32;33670;-74
2022/12/14 07:14:39;;;;;;;1.45;1.45;;;;;;;-1.92;77.02;98726.47;4455661;32;33355;-75
2022/12/14 07:17:07;;;;;;;0.82;0.82;;;;;;;-2.13;79.51;98718.22;4455596;32;33490;-74
2022/12/14 07:19:35;;;;;;;2.72;2.53;;;;;;;-1.56;78.09;98717.28;4454260;32;34205;-74
2022/12/14 07:22:03;;;;;;;0.85;0.85;;;;;;;-1.64;76.81;98716.19;4460097;32;34576;-75
2022/12/14 07:24:32;;;;;;;0.90;0.90;;;;;;;-1.84;78.37;98706.28;4471214;32;33539;-74
2022/12/14 07:26:59;;;;;;;1.40;1.40;;;;;;;-1.83;78.85;98699.50;4471110;32;33869;-75
2022/12/14 07:29:27;;;;;;;1.35;1.35;;;;;;;-1.66;77.95;98695.75;4471094;32;35902;-74
2022/12/14 07:32:02;;;;;;;1.17;1.17;;;;;;;-1.72;77.32;98698.13;4471061;32;34429;-74
2022/12/14 07:34:30;;;;;;;0.90;0.90;;;;;;;-1.51;77.41;98697.84;4457261;32;33094;-74
2022/12/14 07:36:57;;;;;;;1.85;1.75;;;;;;;-1.64;78.01;98691.53;4471061;32;33945;-74
2022/12/14 07:39:26;;;;;;;0.90;0.90;;;;;;;-1.28;76.80;98710.34;4470863;32;35898;-74
2022/12/14 07:41:54;;;;;;;1.80;1.70;;;;;;;-1.68;76.53;98717.78;4444106;32;33703;-74
2022/12/14 07:44:22;;;;;;;2.20;2.00;;;;;;;-1.75;78.03;98721.00;4470974;32;34261;-74
2022/12/14 07:46:51;;;;;;;0.90;0.90;;;;;;;-1.68;77.86;98735.66;4457102;32;34798;-74
2022/12/14 07:49:20;;;;;;;0.90;0.90;;;;;;;-1.53;77.41;98730.13;4470887;32;34905;-74
2022/12/14 07:51:48;;;;;;;2.12;2.03;;;;;;;-1.41;77.19;98730.47;4470979;32;34598;-74
2022/12/14 07:54:17;;;;;;;0.80;0.80;;;;;;;-1.26;76.22;98731.69;4457078;32;34287;-74
2022/12/14 07:56:45;;;;;;;13.75;6.03;;;;;;;-1.65;77.27;98732.34;4470831;32;33956;-75
2022/12/14 07:59:14;;;;;;;0.80;0.80;;;;;;;-1.46;76.93;98751.59;4470931;32;35947;-74
2022/12/14 08:01:43;;;;;;;0.95;0.95;;;;;;;-1.34;75.97;98747.69;4457224;32;33797;-75
2022/12/14 08:04:17;;;;;;;1.08;1.08;;;;;;;-1.41;76.08;98735.56;4470890;32;33455;-75
2022/12/14 08:06:46;;;;;;;0.90;0.90;;;;;;;-1.78;78.28;98746.44;4457237;32;34642;-74
2022/12/14 08:09:15;;;;;;;1.65;1.60;;;;;;;-1.49;77.10;98731.06;4470592;32;35146;-75
2022/12/14 08:11:44;;;;;;;0.80;0.80;;;;;;;-1.35;77.22;98720.41;4456659;32;32829;-75
2022/12/14 08:14:17;;;;;;;0.80;0.80;;;;;;;-1.51;77.21;98723.38;4457014;32;33552;-75
2022/12/14 08:16:47;;;;;;;1.00;1.00;;;;;;;-1.16;76.49;98718.34;4457027;32;34820;-75
2022/12/14 08:19:17;;;;;;;1.55;1.45;;;;;;;-1.18;75.69;98712.34;4443727;32;35354;-75
2022/12/14 08:21:46;;;;;;;0.90;0.90;;;;;;;-0.97;74.86;98719.66;4457059;32;35185;-76
2022/12/14 08:24:15;;;;;;;0.80;0.80;;;;;;;-0.74;74.16;98732.12;4457136;32;34515;-75
2022/12/14 08:26:43;;;;;;;3.83;3.40;;;;;;;-0.98;74.75;98730.72;4470730;32;34795;-75
2022/12/14 08:29:17;;;;;;;0.82;0.82;;;;;;;-0.74;74.08;98727.91;4470708;32;35979;-75
2022/12/14 08:31:45;;;;;;;0.90;0.90;;;;;;;-1.16;74.71;98729.41;4456814;32;34523;-77
2022/12/14 08:34:15;;;;;;;2.42;2.30;;;;;;;-0.92;74.45;98719.78;4470672;32;34195;-79
2022/12/14 08:36:43;;;;;;;0.90;0.90;;;;;;;-1.35;75.74;98715.28;4470605;32;34737;-80
2022/12/14 08:39:12;;;;;;;3.25;2.65;;;;;;;-0.91;74.39;98708.75;4470515;32;35686;-80
2022/12/14 08:41:40;;;;;;;1.02;1.02;;;;;;;-0.99;74.84;98698.31;4470579;32;34605;-80
2022/12/14 08:44:08;;;;;;;1.00;1.00;;;;;;;-1.01;75.15;98700.81;4470709;32;33627;-80
2022/12/14 08:46:37;;;;;;;1.15;1.15;;;;;;;-0.92;74.85;98699.31;4456391;32;32414;-80
2022/12/14 08:49:06;;;;;;;1.15;1.15;;;;;;;-1.14;75.11;98698.81;4443996;32;34925;-80
2022/12/14 08:51:38;;;;;;;0.82;0.82;;;;;;;-0.93;74.63;98703.59;4443701;32;33769;-81
2022/12/14 08:54:06;;;;;;;1.87;1.77;;;;;;;-0.78;73.83;98692.84;4457031;32;34244;-76
2022/12/14 08:56:35;;;;;;;0.80;0.80;;;;;;;-0.88;73.93;98685.78;4456588;32;34004;-75
2022/12/14 08:59:03;;;;;;;3.12;2.92;;;;;;;-1.02;74.23;98682.94;4456622;32;35066;-75
2022/12/14 09:01:32;;;;;;;0.80;0.80;;;;;;;-1.23;74.65;98673.88;4470400;32;34419;-75
2022/12/14 09:04:04;;;;;;;1.17;1.10;;;;;;;-0.80;73.21;98684.28;4470613;32;33690;-75
2022/12/14 09:06:34;;;;;;;1.05;1.05;;;;;;;-0.88;73.18;98688.34;4470490;32;33161;-75
2022/12/14 09:09:04;;;;;;;1.27;1.27;;;;;;;-0.53;72.29;98683.22;4470619;32;34388;-76
2022/12/14 09:11:40;;;;;;;0.80;0.80;;;;;;;-0.89;73.89;98684.09;4470319;32;35102;-76
2022/12/14 09:14:09;;;;;;;4.87;3.17;;;;;;;-1.15;74.24;98681.72;4470431;32;33485;-76
2022/12/14 09:16:38;;;;;;;0.90;0.90;;;;;;;-0.81;73.34;98685.13;4470339;32;34052;-76
2022/12/14 09:19:06;;;;;;;1.05;1.05;;;;;;;-0.73;73.26;98682.75;4470254;32;35035;-75
2022/12/14 09:21:34;;;;;;;2.35;2.25;;;;;;;-0.63;72.78;98677.88;4469695;32;34708;-75
2022/12/14 09:24:03;;;;;;;4.53;2.25;;;;;;;-0.72;71.31;98685.34;4470214;32;34343;-75
2022/12/14 09:26:32;;;;;;;2.83;1.98;;;;;;;-0.50;72.33;98681.59;4456236;32;34017;-76
2022/12/14 09:29:01;;;;;;;0.90;0.90;;;;;;;-0.82;72.37;98675.72;4456411;32;34928;-75
2022/12/14 09:31:29;;;;;;;1.02;1.02;;;;;;;-0.36;71.06;98676.78;4456453;32;35185;-75
2022/12/14 09:33:57;;;;;;;0.80;0.80;;;;;;;-0.44;71.41;98678.28;4470264;32;33405;-76
2022/12/14 09:36:27;;;;;;;1.20;1.20;;;;;;;-0.21;70.44;98679.69;4470570;32;33907;-76
2022/12/14 09:38:56;;;;;;;1.00;1.00;;;;;;;0.01;70.24;98677.56;4470040;32;35168;-76
2022/12/14 09:41:40;;;;;;;0.75;0.75;;;;;;;0.00;70.15;98678.41;4470107;32;34432;-75
2022/12/14 09:44:46;;;;;;;0.80;0.80;;;;;;;-0.39;70.05;98661.34;4456304;32;34334;-75
2022/12/14 09:47:27;;;;;;;3.08;2.90;;;;;;;-0.21;70.69;98661.78;4470245;32;34718;-76
2022/12/14 09:50:10;;;;;;;2.45;2.35;;;;;;;0.08;69.94;98641.03;4456243;32;34944;-76
2022/12/14 09:52:44;;;;;;;2.00;1.90;;;;;;;0.12;69.71;98644.50;4456533;32;34509;-75
2022/12/14 09:55:23;;;;;;;0.80;0.80;;;;;;;-0.55;71.67;98643.97;4456222;32;33620;-76
2022/12/14 09:58:13;;;;;;;0.80;0.80;;;;;;;-0.77;72.40;98635.81;4456384;32;33907;-76
2022/12/14 10:01:10;;;;;;;0.90;0.90;;;;;;;-0.42;71.01;98620.38;4456024;32;35521;-75
2022/12/14 10:03:53;;;;;;;2.05;1.95;;;;;;;-0.32;70.87;98627.41;4470009;32;35363;-76
2022/12/14 10:06:34;;;;;;;2.25;1.87;;;;;;;-0.24;70.09;98620.75;4470024;32;33294;-75
2022/12/14 10:09:10;;;;;;;2.08;1.98;;;;;;;-0.08;69.96;98626.19;4470254;32;34019;-76
2022/12/14 10:12:09;;;;;;;0.90;0.90;;;;;;;0.04;69.65;98626.44;4469856;32;35787;-76
2022/12/14 10:15:05;;;;;;;14.25;6.28;;;;;;;0.15;69.33;98635.19;4469907;32;34312;-76
2022/12/14 10:17:48;;;;;;;5.15;4.85;;;;;;;0.28;69.19;98627.72;4469810;32;33474;-76
2022/12/14 10:20:23;;;;;;;6.60;3.30;;;;;;;0.34;68.72;98630.44;4469731;32;33919;-76
2022/12/14 10:22:52;;;;;;;0.80;0.80;;;;;;;0.36;68.33;98603.16;4452689;32;35933;-75
2022/12/14 10:25:29;;;;;;;7.72;7.15;;;;;;;0.27;68.58;98593.59;4454260;32;34555;-75
2022/12/14 10:28:06;;;;;;;0.80;0.80;;;;;;;0.06;68.51;98598.31;4452927;32;33520;-76
2022/12/14 10:30:42;;;;;;;0.80;0.80;;;;;;;0.48;68.10;98588.00;4453016;32;33930;-76
2022/12/14 10:33:19;;;;;;;1.23;1.23;;;;;;;0.52;68.10;98597.44;4453504;32;34900;-76
2022/12/14 10:35:53;;;;;;;1.12;1.12;;;;;;;0.47;67.77;98591.37;4455952;32;35077;-76
2022/12/14 10:38:57;;;;;;;0.80;0.80;;;;;;;0.38;67.70;98591.22;4454864;32;33349;-76
2022/12/14 10:41:41;;;;;;;0.80;0.80;;;;;;;0.52;67.36;98571.84;4442115;32;32810;-76
2022/12/14 10:44:34;;;;;;;0.90;0.90;;;;;;;0.38;68.79;98570.75;4455841;32;35035;-75
2022/12/14 10:47:15;;;;;;;2.10;1.90;;;;;;;0.51;67.50;98565.00;4455819;32;34593;-76
2022/12/14 10:50:20;;;;;;;0.80;0.80;;;;;;;0.22;68.31;98571.31;4454856;32;34432;-75
2022/12/14 10:52:51;;;;;;;1.12;1.12;;;;;;;0.48;67.57;98557.25;4455894;32;34743;-76
2022/12/14 10:55:23;;;;;;;1.48;1.37;;;;;;;0.80;66.55;98549.22;4441916;32;34818;-76
2022/12/14 10:57:52;;;;;;;0.80;0.80;;;;;;;0.57;67.55;98557.41;4454678;32;34283;-76
2022/12/14 11:00:20;;;;;;;1.70;1.60;;;;;;;0.50;67.50;98560.72;4455697;32;33349;-76
2022/12/14 11:02:55;;;;;;;1.15;1.15;;;;;;;0.35;67.67;98561.31;4454684;32;33089;-75
2022/12/14 11:05:37;;;;;;;1.08;1.08;;;;;;;0.49;67.39;98574.34;4455743;32;34973;-76
2022/12/14 11:08:06;;;;;;;1.73;1.62;;;;;;;0.41;67.53;98562.22;4454586;32;35477;-78
2022/12/14 11:10:40;;;;;;;2.03;1.85;;;;;;;0.27;67.95;98567.13;4454584;32;33572;-76
2022/12/14 11:13:19;;;;;;;1.77;1.70;;;;;;;0.28;67.65;98554.38;4455776;32;33781;-76
2022/12/14 11:15:49;;;;;;;0.80;0.80;;;;;;;0.50;67.46;98554.72;4455615;32;34939;-76
2022/12/14 11:18:18;;;;;;;3.35;1.55;;;;;;;0.62;66.40;98546.38;4454469;32;35223;-77
2022/12/14 11:20:53;;;;;;;0.70;0.70;;;;;;;0.53;66.76;98549.62;4455500;32;34141;-76
2022/12/14 11:23:41;;;;;;;0.75;0.75;;;;;;;0.42;67.38;98541.78;4454305;32;34016;-76
2022/12/14 11:26:24;;;;;;;0.90;0.90;;;;;;;0.24;67.33;98546.59;4454512;32;35185;-76
2022/12/14 11:28:56;;;;;;;0.80;0.80;;;;;;;0.09;67.88;98535.25;4455519;32;34581;-75
2022/12/14 11:31:30;;;;;;;0.80;0.80;;;;;;;-0.44;69.64;98530.84;4454587;32;33533;-76
2022/12/14 11:34:01;;;;;;;;;;;;;;;0.16;67.83;98524.28;4455905;32;34668;-76
2022/12/14 11:36:40;;;;;;;0.80;0.80;;;;;;;-0.07;67.72;98512.75;4441530;32;34663;-76
2022/12/14 11:39:13;;;;;;;1.00;1.00;;;;;;;0.31;67.44;98508.31;4455490;32;34554;-76
2022/12/14 11:41:45;;;;;;;2.53;2.35;;;;;;;0.08;67.07;98501.94;4455468;32;33623;-76
2022/12/14 11:44:14;;;;;;;0.93;0.93;;;;;;;0.24;66.92;98510.75;4453967;32;32280;-76
2022/12/14 11:46:42;;;;;;;0.80;0.80;;;;;;;0.28;67.18;98499.72;4455518;32;35103;-76
2022/12/14 11:49:35;;;;;;;4.15;2.03;;;;;;;-0.06;68.63;98501.69;4455448;32;34523;-76
2022/12/14 11:52:04;;;;;;;0.80;0.80;;;;;;;0.35;67.19;98496.41;4455404;32;33542;-76
2022/12/14 11:54:39;;;;;;;2.55;2.35;;;;;;;0.61;66.46;98485.72;4455389;32;33907;-75
2022/12/14 11:57:11;;;;;;;0.80;0.80;;;;;;;0.37;65.88;98476.81;4455418;32;35239;-75
2022/12/14 11:59:52;;;;;;;0.80;0.80;;;;;;;0.10;67.56;98478.09;4455244;32;35307;-75
2022/12/14 12:02:35;;;;;;;0.80;0.80;;;;;;;0.44;66.40;98470.97;4455345;32;33691;-76
2022/12/14 12:05:09;;;;;;;0.90;0.90;;;;;;;0.25;66.61;98466.38;4455357;32;34005;-75
2022/12/14 12:07:50;;;;;;;0.80;0.80;;;;;;;0.48;66.62;98459.94;4455288;32;35859;-76
2022/12/14 12:10:19;;;;;;;1.87;1.77;;;;;;;0.28;66.85;98469.00;4455336;32;34363;-76
2022/12/14 12:13:01;;;;;;;0.80;0.80;;;;;;;0.70;65.52;98465.38;4455286;32;33467;-76
2022/12/14 12:15:35;;;;;;;0.90;0.90;;;;;;;0.54;66.04;98452.31;4454391;32;33773;-75
2022/12/14 12:18:25;;;;;;;0.80;0.80;;;;;;;0.87;65.66;98458.78;4455321;32;34636;-76